sensor_id;sensor_type;location;lat;lon;timestamp;P1;durP1;ratioP1;P2;durP2;ratioP2
17382;SDS011;8809;51.892;8.384;2023-06-04T00:01:28;1.30;;;1.10;;
17382;SDS011;8809;51.892;8.384;2023-06-04T00:03:56;1.40;;;1.27;;
17382;SDS011;8809;51.892;8.384;2023-06-04T00:06:23;1.88;;;1.52;;
17382;SDS011;8809;51.892;8.384;2023-06-04T00:08:51;1.58;;;1.05;;
17382;SDS011;8809;51.892;8.384;2023-06-04T00:11:20;2.63;;;1.30;;
17382;SDS011;8809;51.892;8.384;2023-06-04T00:13:47;1.63;;;1.33;;
17382;SDS011;8809;51.892;8.384;2023-06-04T00:16:14;1.20;;;1.10;;
17382;SDS011;8809;51.892;8.384;2023-06-04T00:18:42;1.67;;;1.40;;
17382;SDS011;8809;51.892;8.384;2023-06-04T00:21:12;1.77;;;1.25;;
17382;SDS011;8809;51.892;8.384;2023-06-04T00:23:39;1.60;;;1.50;;
17382;SDS011;8809;51.892;8.384;2023-06-04T00:26:06;1.83;;;1.42;;
17382;SDS011;8809;51.892;8.384;2023-06-04T00:28:35;1.40;;;1.10;;
17382;SDS011;8809;51.892;8.384;2023-06-04T00:31:04;1.73;;;1.23;;
17382;SDS011;8809;51.892;8.384;2023-06-04T00:33:32;1.55;;;1.30;;
17382;SDS011;8809;51.892;8.384;2023-06-04T00:36:00;1.77;;;1.40;;
17382;SDS011;8809;51.892;8.384;2023-06-04T00:38:28;1.50;;;1.27;;
17382;SDS011;8809;51.892;8.384;2023-06-04T00:40:55;1.75;;;1.27;;
17382;SDS011;8809;51.892;8.384;2023-06-04T00:43:23;2.03;;;1.42;;
17382;SDS011;8809;51.892;8.384;2023-06-04T00:45:53;1.73;;;1.27;;
17382;SDS011;8809;51.892;8.384;2023-06-04T00:48:21;1.48;;;1.33;;
17382;SDS011;8809;51.892;8.384;2023-06-04T00:50:52;1.38;;;1.10;;
17382;SDS011;8809;51.892;8.384;2023-06-04T00:53:20;1.17;;;1.05;;
17382;SDS011;8809;51.892;8.384;2023-06-04T00:55:49;1.60;;;1.20;;
17382;SDS011;8809;51.892;8.384;2023-06-04T00:58:18;1.38;;;1.20;;
17382;SDS011;8809;51.892;8.384;2023-06-04T01:00:46;1.75;;;1.38;;
17382;SDS011;8809;51.892;8.384;2023-06-04T01:03:17;1.73;;;1.30;;
17382;SDS011;8809;51.892;8.384;2023-06-04T01:05:48;1.55;;;1.42;;
17382;SDS011;8809;51.892;8.384;2023-06-04T01:08:24;1.50;;;1.00;;
17382;SDS011;8809;51.892;8.384;2023-06-04T01:10:53;1.88;;;1.30;;
17382;SDS011;8809;51.892;8.384;2023-06-04T01:13:21;1.13;;;1.02;;
17382;SDS011;8809;51.892;8.384;2023-06-04T01:15:48;1.85;;;1.30;;
17382;SDS011;8809;51.892;8.384;2023-06-04T01:18:18;1.58;;;1.00;;
17382;SDS011;8809;51.892;8.384;2023-06-04T01:20:53;1.73;;;1.30;;
17382;SDS011;8809;51.892;8.384;2023-06-04T01:23:30;1.40;;;1.17;;
17382;SDS011;8809;51.892;8.384;2023-06-04T01:26:04;2.00;;;1.40;;
17382;SDS011;8809;51.892;8.384;2023-06-04T01:28:32;2.17;;;1.27;;
17382;SDS011;8809;51.892;8.384;2023-06-04T01:31:01;1.63;;;1.00;;
17382;SDS011;8809;51.892;8.384;2023-06-04T01:33:34;1.55;;;1.25;;
17382;SDS011;8809;51.892;8.384;2023-06-04T01:36:01;1.60;;;1.10;;
17382;SDS011;8809;51.892;8.384;2023-06-04T01:38:28;1.50;;;1.40;;
17382;SDS011;8809;51.892;8.384;2023-06-04T01:40:56;2.17;;;1.40;;
17382;SDS011;8809;51.892;8.384;2023-06-04T01:43:27;1.80;;;1.60;;
17382;SDS011;8809;51.892;8.384;2023-06-04T01:45:54;2.22;;;1.40;;
17382;SDS011;8809;51.892;8.384;2023-06-04T01:48:21;2.15;;;1.42;;
17382;SDS011;8809;51.892;8.384;2023-06-04T01:50:50;2.28;;;1.23;;
17382;SDS011;8809;51.892;8.384;2023-06-04T01:53:17;1.98;;;1.30;;
17382;SDS011;8809;51.892;8.384;2023-06-04T01:55:45;2.25;;;1.40;;
17382;SDS011;8809;51.892;8.384;2023-06-04T01:58:14;2.80;;;1.45;;
17382;SDS011;8809;51.892;8.384;2023-06-04T02:00:52;1.70;;;1.40;;
17382;SDS011;8809;51.892;8.384;2023-06-04T02:03:20;1.67;;;1.30;;
17382;SDS011;8809;51.892;8.384;2023-06-04T02:05:48;2.75;;;1.50;;
17382;SDS011;8809;51.892;8.384;2023-06-04T02:08:16;1.95;;;1.50;;
17382;SDS011;8809;51.892;8.384;2023-06-04T02:10:45;2.33;;;1.42;;
17382;SDS011;8809;51.892;8.384;2023-06-04T02:13:13;2.72;;;1.50;;
17382;SDS011;8809;51.892;8.384;2023-06-04T02:15:40;2.55;;;1.38;;
17382;SDS011;8809;51.892;8.384;2023-06-04T02:18:12;2.70;;;1.55;;
17382;SDS011;8809;51.892;8.384;2023-06-04T02:20:42;2.20;;;1.45;;
17382;SDS011;8809;51.892;8.384;2023-06-04T02:23:10;1.35;;;1.25;;
17382;SDS011;8809;51.892;8.384;2023-06-04T02:25:39;1.98;;;1.40;;
17382;SDS011;8809;51.892;8.384;2023-06-04T02:28:06;2.35;;;1.50;;
17382;SDS011;8809;51.892;8.384;2023-06-04T02:30:35;1.63;;;1.30;;
17382;SDS011;8809;51.892;8.384;2023-06-04T02:33:02;2.33;;;1.40;;
17382;SDS011;8809;51.892;8.384;2023-06-04T02:35:30;1.38;;;1.00;;
17382;SDS011;8809;51.892;8.384;2023-06-04T02:37:57;1.48;;;1.20;;
17382;SDS011;8809;51.892;8.384;2023-06-04T02:40:25;1.30;;;1.10;;
17382;SDS011;8809;51.892;8.384;2023-06-04T02:42:53;1.30;;;1.15;;
17382;SDS011;8809;51.892;8.384;2023-06-04T02:45:21;1.88;;;1.45;;
17382;SDS011;8809;51.892;8.384;2023-06-04T02:47:49;1.63;;;1.20;;
17382;SDS011;8809;51.892;8.384;2023-06-04T02:50:16;1.80;;;1.20;;
17382;SDS011;8809;51.892;8.384;2023-06-04T02:52:43;1.55;;;1.30;;
17382;SDS011;8809;51.892;8.384;2023-06-04T02:55:10;1.40;;;1.10;;
17382;SDS011;8809;51.892;8.384;2023-06-04T02:57:39;1.70;;;1.30;;
17382;SDS011;8809;51.892;8.384;2023-06-04T03:00:12;1.23;;;1.02;;
17382;SDS011;8809;51.892;8.384;2023-06-04T03:02:42;1.25;;;1.10;;
17382;SDS011;8809;51.892;8.384;2023-06-04T03:05:11;1.30;;;1.20;;
17382;SDS011;8809;51.892;8.384;2023-06-04T03:07:40;1.30;;;1.15;;
17382;SDS011;8809;51.892;8.384;2023-06-04T03:10:08;2.10;;;1.42;;
17382;SDS011;8809;51.892;8.384;2023-06-04T03:12:37;1.33;;;1.20;;
17382;SDS011;8809;51.892;8.384;2023-06-04T03:15:04;1.67;;;1.20;;
17382;SDS011;8809;51.892;8.384;2023-06-04T03:17:34;1.58;;;1.30;;
17382;SDS011;8809;51.892;8.384;2023-06-04T03:20:01;1.52;;;1.10;;
17382;SDS011;8809;51.892;8.384;2023-06-04T03:22:29;2.08;;;1.52;;
17382;SDS011;8809;51.892;8.384;2023-06-04T03:24:59;3.45;;;1.27;;
17382;SDS011;8809;51.892;8.384;2023-06-04T03:27:26;1.55;;;1.30;;
17382;SDS011;8809;51.892;8.384;2023-06-04T03:29:53;1.17;;;1.08;;
17382;SDS011;8809;51.892;8.384;2023-06-04T03:32:20;1.67;;;1.08;;
17382;SDS011;8809;51.892;8.384;2023-06-04T03:34:48;1.10;;;1.00;;
17382;SDS011;8809;51.892;8.384;2023-06-04T03:37:16;1.60;;;1.30;;
17382;SDS011;8809;51.892;8.384;2023-06-04T03:39:43;2.20;;;1.30;;
17382;SDS011;8809;51.892;8.384;2023-06-04T03:42:11;1.48;;;1.38;;
17382;SDS011;8809;51.892;8.384;2023-06-04T03:44:38;1.77;;;1.60;;
17382;SDS011;8809;51.892;8.384;2023-06-04T03:47:05;1.75;;;1.30;;
17382;SDS011;8809;51.892;8.384;2023-06-04T03:49:32;1.40;;;1.30;;
17382;SDS011;8809;51.892;8.384;2023-06-04T03:52:01;2.28;;;1.50;;
17382;SDS011;8809;51.892;8.384;2023-06-04T03:54:28;2.05;;;1.33;;
17382;SDS011;8809;51.892;8.384;2023-06-04T03:56:56;1.50;;;1.20;;
17382;SDS011;8809;51.892;8.384;2023-06-04T03:59:23;1.42;;;1.20;;
17382;SDS011;8809;51.892;8.384;2023-06-04T04:01:50;1.38;;;1.27;;
17382;SDS011;8809;51.892;8.384;2023-06-04T04:04:17;2.20;;;1.75;;
17382;SDS011;8809;51.892;8.384;2023-06-04T04:06:44;1.77;;;1.35;;
17382;SDS011;8809;51.892;8.384;2023-06-04T04:09:12;1.60;;;1.50;;
17382;SDS011;8809;51.892;8.384;2023-06-04T04:11:39;1.50;;;1.20;;
17382;SDS011;8809;51.892;8.384;2023-06-04T04:14:06;1.40;;;1.20;;
17382;SDS011;8809;51.892;8.384;2023-06-04T04:16:34;1.40;;;1.15;;
17382;SDS011;8809;51.892;8.384;2023-06-04T04:19:01;1.40;;;1.20;;
17382;SDS011;8809;51.892;8.384;2023-06-04T04:21:28;1.48;;;1.17;;
17382;SDS011;8809;51.892;8.384;2023-06-04T04:23:55;1.13;;;1.02;;
17382;SDS011;8809;51.892;8.384;2023-06-04T04:26:24;1.52;;;1.15;;
17382;SDS011;8809;51.892;8.384;2023-06-04T04:28:52;1.38;;;1.10;;
17382;SDS011;8809;51.892;8.384;2023-06-04T04:31:25;1.42;;;1.33;;
17382;SDS011;8809;51.892;8.384;2023-06-04T04:33:54;1.52;;;1.00;;
17382;SDS011;8809;51.892;8.384;2023-06-04T04:36:21;1.38;;;1.27;;
17382;SDS011;8809;51.892;8.384;2023-06-04T04:38:49;1.23;;;1.13;;
17382;SDS011;8809;51.892;8.384;2023-06-04T04:41:19;1.35;;;1.02;;
17382;SDS011;8809;51.892;8.384;2023-06-04T04:43:49;1.48;;;1.30;;
17382;SDS011;8809;51.892;8.384;2023-06-04T04:46:20;1.27;;;1.17;;
17382;SDS011;8809;51.892;8.384;2023-06-04T04:48:47;2.15;;;1.08;;
17382;SDS011;8809;51.892;8.384;2023-06-04T04:51:16;1.35;;;1.08;;
17382;SDS011;8809;51.892;8.384;2023-06-04T04:53:43;1.00;;;0.90;;
17382;SDS011;8809;51.892;8.384;2023-06-04T04:56:10;1.10;;;1.00;;
17382;SDS011;8809;51.892;8.384;2023-06-04T04:58:37;1.33;;;1.13;;
17382;SDS011;8809;51.892;8.384;2023-06-04T05:01:06;1.10;;;1.00;;
17382;SDS011;8809;51.892;8.384;2023-06-04T05:03:35;1.20;;;0.98;;
17382;SDS011;8809;51.892;8.384;2023-06-04T05:06:03;1.20;;;1.10;;
17382;SDS011;8809;51.892;8.384;2023-06-04T05:08:30;1.17;;;1.08;;
17382;SDS011;8809;51.892;8.384;2023-06-04T05:10:57;0.95;;;0.85;;
17382;SDS011;8809;51.892;8.384;2023-06-04T05:13:24;1.10;;;1.00;;
17382;SDS011;8809;51.892;8.384;2023-06-04T05:15:51;1.00;;;0.90;;
17382;SDS011;8809;51.892;8.384;2023-06-04T05:18:20;1.20;;;1.02;;
17382;SDS011;8809;51.892;8.384;2023-06-04T05:20:47;1.20;;;1.10;;
17382;SDS011;8809;51.892;8.384;2023-06-04T05:23:15;0.95;;;0.93;;
17382;SDS011;8809;51.892;8.384;2023-06-04T05:25:42;0.95;;;0.82;;
17382;SDS011;8809;51.892;8.384;2023-06-04T05:28:09;0.90;;;0.80;;
17382;SDS011;8809;51.892;8.384;2023-06-04T05:30:38;0.80;;;0.80;;
17382;SDS011;8809;51.892;8.384;2023-06-04T05:33:06;1.08;;;0.98;;
17382;SDS011;8809;51.892;8.384;2023-06-04T05:35:45;1.25;;;1.05;;
17382;SDS011;8809;51.892;8.384;2023-06-04T05:38:13;0.77;;;0.70;;
17382;SDS011;8809;51.892;8.384;2023-06-04T05:40:42;0.93;;;0.82;;
17382;SDS011;8809;51.892;8.384;2023-06-04T05:43:09;0.80;;;0.80;;
17382;SDS011;8809;51.892;8.384;2023-06-04T05:45:37;1.00;;;0.90;;
17382;SDS011;8809;51.892;8.384;2023-06-04T05:48:04;0.90;;;0.90;;
17382;SDS011;8809;51.892;8.384;2023-06-04T05:50:32;0.88;;;0.80;;
17382;SDS011;8809;51.892;8.384;2023-06-04T05:53:03;0.98;;;0.85;;
17382;SDS011;8809;51.892;8.384;2023-06-04T05:55:30;1.08;;;0.80;;
17382;SDS011;8809;51.892;8.384;2023-06-04T05:57:58;1.00;;;0.93;;
17382;SDS011;8809;51.892;8.384;2023-06-04T06:00:25;1.52;;;0.85;;
17382;SDS011;8809;51.892;8.384;2023-06-04T06:02:52;0.80;;;0.80;;
17382;SDS011;8809;51.892;8.384;2023-06-04T06:05:19;0.98;;;0.95;;
17382;SDS011;8809;51.892;8.384;2023-06-04T06:07:47;1.92;;;0.90;;
17382;SDS011;8809;51.892;8.384;2023-06-04T06:10:15;1.20;;;0.93;;
17382;SDS011;8809;51.892;8.384;2023-06-04T06:12:42;1.42;;;1.00;;
17382;SDS011;8809;51.892;8.384;2023-06-04T06:15:09;1.10;;;1.00;;
17382;SDS011;8809;51.892;8.384;2023-06-04T06:17:37;1.00;;;0.90;;
17382;SDS011;8809;51.892;8.384;2023-06-04T06:20:05;1.25;;;0.90;;
17382;SDS011;8809;51.892;8.384;2023-06-04T06:22:33;1.05;;;0.90;;
17382;SDS011;8809;51.892;8.384;2023-06-04T06:25:01;0.73;;;0.60;;
17382;SDS011;8809;51.892;8.384;2023-06-04T06:27:29;0.88;;;0.70;;
17382;SDS011;8809;51.892;8.384;2023-06-04T06:29:57;0.77;;;0.77;;
17382;SDS011;8809;51.892;8.384;2023-06-04T06:32:27;0.70;;;0.70;;
17382;SDS011;8809;51.892;8.384;2023-06-04T06:34:55;0.80;;;0.80;;
17382;SDS011;8809;51.892;8.384;2023-06-04T06:37:22;1.15;;;0.90;;
17382;SDS011;8809;51.892;8.384;2023-06-04T06:39:49;0.90;;;0.70;;
17382;SDS011;8809;51.892;8.384;2023-06-04T06:42:17;0.80;;;0.80;;
17382;SDS011;8809;51.892;8.384;2023-06-04T06:44:46;1.13;;;0.85;;
17382;SDS011;8809;51.892;8.384;2023-06-04T06:47:14;1.15;;;0.80;;
17382;SDS011;8809;51.892;8.384;2023-06-04T06:49:41;1.02;;;0.93;;
17382;SDS011;8809;51.892;8.384;2023-06-04T06:52:09;0.93;;;0.82;;
17382;SDS011;8809;51.892;8.384;2023-06-04T06:54:36;0.88;;;0.70;;
17382;SDS011;8809;51.892;8.384;2023-06-04T06:57:04;1.17;;;0.85;;
17382;SDS011;8809;51.892;8.384;2023-06-04T06:59:34;0.93;;;0.77;;
17382;SDS011;8809;51.892;8.384;2023-06-04T07:02:03;0.93;;;0.80;;
17382;SDS011;8809;51.892;8.384;2023-06-04T07:04:36;0.70;;;0.70;;
17382;SDS011;8809;51.892;8.384;2023-06-04T07:07:04;1.00;;;0.90;;
17382;SDS011;8809;51.892;8.384;2023-06-04T07:09:31;1.02;;;0.93;;
17382;SDS011;8809;51.892;8.384;2023-06-04T07:11:58;0.88;;;0.80;;
17382;SDS011;8809;51.892;8.384;2023-06-04T07:14:26;0.80;;;0.70;;
17382;SDS011;8809;51.892;8.384;2023-06-04T07:16:53;1.00;;;0.80;;
17382;SDS011;8809;51.892;8.384;2023-06-04T07:19:21;1.10;;;0.80;;
17382;SDS011;8809;51.892;8.384;2023-06-04T07:21:49;1.05;;;0.80;;
17382;SDS011;8809;51.892;8.384;2023-06-04T07:24:16;1.30;;;1.00;;
17382;SDS011;8809;51.892;8.384;2023-06-04T07:26:43;1.00;;;0.80;;
17382;SDS011;8809;51.892;8.384;2023-06-04T07:29:11;0.88;;;0.80;;
17382;SDS011;8809;51.892;8.384;2023-06-04T07:31:38;1.10;;;0.90;;
17382;SDS011;8809;51.892;8.384;2023-06-04T07:34:05;1.10;;;1.00;;
17382;SDS011;8809;51.892;8.384;2023-06-04T07:36:34;1.15;;;0.90;;
17382;SDS011;8809;51.892;8.384;2023-06-04T07:39:02;0.93;;;0.80;;
17382;SDS011;8809;51.892;8.384;2023-06-04T07:41:30;1.20;;;1.10;;
17382;SDS011;8809;51.892;8.384;2023-06-04T07:43:57;1.63;;;1.20;;
17382;SDS011;8809;51.892;8.384;2023-06-04T07:46:24;1.35;;;1.23;;
17382;SDS011;8809;51.892;8.384;2023-06-04T07:48:51;1.80;;;1.30;;
17382;SDS011;8809;51.892;8.384;2023-06-04T07:51:19;2.33;;;1.20;;
17382;SDS011;8809;51.892;8.384;2023-06-04T07:53:47;1.35;;;1.20;;
17382;SDS011;8809;51.892;8.384;2023-06-04T07:56:14;1.10;;;1.00;;
17382;SDS011;8809;51.892;8.384;2023-06-04T07:58:41;1.33;;;1.20;;
17382;SDS011;8809;51.892;8.384;2023-06-04T08:01:10;1.30;;;1.20;;
17382;SDS011;8809;51.892;8.384;2023-06-04T08:03:37;1.20;;;1.10;;
17382;SDS011;8809;51.892;8.384;2023-06-04T08:06:06;1.65;;;1.10;;
17382;SDS011;8809;51.892;8.384;2023-06-04T08:08:33;1.13;;;1.00;;
17382;SDS011;8809;51.892;8.384;2023-06-04T08:11:02;1.80;;;1.40;;
17382;SDS011;8809;51.892;8.384;2023-06-04T08:13:29;2.00;;;1.30;;
17382;SDS011;8809;51.892;8.384;2023-06-04T08:15:56;1.60;;;1.23;;
17382;SDS011;8809;51.892;8.384;2023-06-04T08:18:23;1.38;;;1.00;;
17382;SDS011;8809;51.892;8.384;2023-06-04T08:20:50;1.35;;;1.25;;
17382;SDS011;8809;51.892;8.384;2023-06-04T08:23:17;1.63;;;1.23;;
17382;SDS011;8809;51.892;8.384;2023-06-04T08:25:47;2.08;;;1.70;;
17382;SDS011;8809;51.892;8.384;2023-06-04T08:28:16;1.80;;;1.35;;
17382;SDS011;8809;51.892;8.384;2023-06-04T08:30:44;1.85;;;1.67;;
17382;SDS011;8809;51.892;8.384;2023-06-04T08:33:11;2.42;;;1.75;;
17382;SDS011;8809;51.892;8.384;2023-06-04T08:35:39;2.53;;;1.60;;
17382;SDS011;8809;51.892;8.384;2023-06-04T08:38:06;1.83;;;1.48;;
17382;SDS011;8809;51.892;8.384;2023-06-04T08:40:33;1.88;;;1.40;;
17382;SDS011;8809;51.892;8.384;2023-06-04T08:43:01;1.38;;;1.27;;
17382;SDS011;8809;51.892;8.384;2023-06-04T08:45:30;1.55;;;1.30;;
17382;SDS011;8809;51.892;8.384;2023-06-04T08:47:59;1.50;;;1.40;;
17382;SDS011;8809;51.892;8.384;2023-06-04T08:50:27;1.50;;;1.38;;
17382;SDS011;8809;51.892;8.384;2023-06-04T08:52:55;1.75;;;1.42;;
17382;SDS011;8809;51.892;8.384;2023-06-04T08:55:23;2.15;;;1.52;;
17382;SDS011;8809;51.892;8.384;2023-06-04T08:57:50;1.77;;;1.50;;
17382;SDS011;8809;51.892;8.384;2023-06-04T09:00:18;2.00;;;1.60;;
17382;SDS011;8809;51.892;8.384;2023-06-04T09:02:49;1.73;;;1.40;;
17382;SDS011;8809;51.892;8.384;2023-06-04T09:05:19;1.75;;;1.60;;
17382;SDS011;8809;51.892;8.384;2023-06-04T09:07:48;1.98;;;1.50;;
17382;SDS011;8809;51.892;8.384;2023-06-04T09:10:21;1.67;;;1.58;;
17382;SDS011;8809;51.892;8.384;2023-06-04T09:12:50;2.00;;;1.40;;
17382;SDS011;8809;51.892;8.384;2023-06-04T09:15:18;1.92;;;1.50;;
17382;SDS011;8809;51.892;8.384;2023-06-04T09:17:45;2.35;;;1.90;;
17382;SDS011;8809;51.892;8.384;2023-06-04T09:20:20;1.98;;;1.77;;
17382;SDS011;8809;51.892;8.384;2023-06-04T09:22:50;1.70;;;1.52;;
17382;SDS011;8809;51.892;8.384;2023-06-04T09:25:21;2.20;;;1.60;;
17382;SDS011;8809;51.892;8.384;2023-06-04T09:27:53;3.00;;;1.92;;
17382;SDS011;8809;51.892;8.384;2023-06-04T09:30:23;3.10;;;1.98;;
17382;SDS011;8809;51.892;8.384;2023-06-04T09:32:52;2.22;;;1.75;;
17382;SDS011;8809;51.892;8.384;2023-06-04T09:35:21;1.98;;;1.77;;
17382;SDS011;8809;51.892;8.384;2023-06-04T09:37:51;2.22;;;1.92;;
17382;SDS011;8809;51.892;8.384;2023-06-04T09:40:21;2.35;;;2.00;;
17382;SDS011;8809;51.892;8.384;2023-06-04T09:42:49;1.73;;;1.63;;
17382;SDS011;8809;51.892;8.384;2023-06-04T09:45:29;2.05;;;1.70;;
17382;SDS011;8809;51.892;8.384;2023-06-04T09:48:02;2.33;;;1.80;;
17382;SDS011;8809;51.892;8.384;2023-06-04T09:50:32;2.00;;;1.80;;
17382;SDS011;8809;51.892;8.384;2023-06-04T09:53:12;1.85;;;1.63;;
17382;SDS011;8809;51.892;8.384;2023-06-04T09:55:40;2.25;;;1.60;;
17382;SDS011;8809;51.892;8.384;2023-06-04T09:58:08;1.85;;;1.60;;
17382;SDS011;8809;51.892;8.384;2023-06-04T10:00:37;1.67;;;1.38;;
17382;SDS011;8809;51.892;8.384;2023-06-04T10:03:05;1.63;;;1.52;;
17382;SDS011;8809;51.892;8.384;2023-06-04T10:05:35;1.60;;;1.50;;
17382;SDS011;8809;51.892;8.384;2023-06-04T10:08:03;9.38;;;2.05;;
17382;SDS011;8809;51.892;8.384;2023-06-04T10:10:34;5.93;;;1.65;;
17382;SDS011;8809;51.892;8.384;2023-06-04T10:13:05;2.50;;;1.58;;
17382;SDS011;8809;51.892;8.384;2023-06-04T10:15:33;1.70;;;1.50;;
17382;SDS011;8809;51.892;8.384;2023-06-04T10:18:02;2.30;;;1.77;;
17382;SDS011;8809;51.892;8.384;2023-06-04T10:20:30;1.30;;;1.20;;
17382;SDS011;8809;51.892;8.384;2023-06-04T10:22:59;1.30;;;1.20;;
17382;SDS011;8809;51.892;8.384;2023-06-04T10:25:27;1.48;;;1.38;;
17382;SDS011;8809;51.892;8.384;2023-06-04T10:27:55;1.67;;;1.45;;
17382;SDS011;8809;51.892;8.384;2023-06-04T10:30:24;2.05;;;1.58;;
17382;SDS011;8809;51.892;8.384;2023-06-04T10:32:52;3.13;;;1.50;;
17382;SDS011;8809;51.892;8.384;2023-06-04T10:35:29;1.83;;;1.40;;
17382;SDS011;8809;51.892;8.384;2023-06-04T10:38:05;1.30;;;1.20;;
17382;SDS011;8809;51.892;8.384;2023-06-04T10:40:36;2.47;;;1.25;;
17382;SDS011;8809;51.892;8.384;2023-06-04T10:43:04;2.80;;;1.65;;
17382;SDS011;8809;51.892;8.384;2023-06-04T10:45:32;1.58;;;1.33;;
17382;SDS011;8809;51.892;8.384;2023-06-04T10:48:05;1.67;;;1.33;;
17382;SDS011;8809;51.892;8.384;2023-06-04T10:50:33;1.38;;;1.27;;
17382;SDS011;8809;51.892;8.384;2023-06-04T10:53:04;2.00;;;1.40;;
17382;SDS011;8809;51.892;8.384;2023-06-04T10:55:42;1.60;;;1.30;;
17382;SDS011;8809;51.892;8.384;2023-06-04T10:58:11;2.83;;;1.38;;
17382;SDS011;8809;51.892;8.384;2023-06-04T11:00:39;1.40;;;1.30;;
17382;SDS011;8809;51.892;8.384;2023-06-04T11:03:07;1.90;;;1.65;;
17382;SDS011;8809;51.892;8.384;2023-06-04T11:05:38;1.38;;;1.23;;
17382;SDS011;8809;51.892;8.384;2023-06-04T11:08:07;1.60;;;1.50;;
17382;SDS011;8809;51.892;8.384;2023-06-04T11:10:37;1.52;;;1.20;;
17382;SDS011;8809;51.892;8.384;2023-06-04T11:13:06;1.77;;;1.27;;
17382;SDS011;8809;51.892;8.384;2023-06-04T11:15:40;1.25;;;1.15;;
17382;SDS011;8809;51.892;8.384;2023-06-04T11:18:08;2.17;;;1.30;;
17382;SDS011;8809;51.892;8.384;2023-06-04T11:20:35;1.90;;;1.55;;
17382;SDS011;8809;51.892;8.384;2023-06-04T11:23:02;1.40;;;1.30;;
17382;SDS011;8809;51.892;8.384;2023-06-04T11:25:32;1.70;;;1.25;;
17382;SDS011;8809;51.892;8.384;2023-06-04T11:28:00;1.58;;;1.45;;
17382;SDS011;8809;51.892;8.384;2023-06-04T11:30:28;1.92;;;1.48;;
17382;SDS011;8809;51.892;8.384;2023-06-04T11:33:02;2.15;;;1.13;;
17382;SDS011;8809;51.892;8.384;2023-06-04T11:35:30;1.63;;;1.13;;
17382;SDS011;8809;51.892;8.384;2023-06-04T11:37:58;2.08;;;1.52;;
17382;SDS011;8809;51.892;8.384;2023-06-04T11:40:25;2.15;;;1.13;;
17382;SDS011;8809;51.892;8.384;2023-06-04T11:42:54;1.40;;;1.30;;
17382;SDS011;8809;51.892;8.384;2023-06-04T11:45:23;1.33;;;1.17;;
17382;SDS011;8809;51.892;8.384;2023-06-04T11:47:52;1.40;;;1.10;;
17382;SDS011;8809;51.892;8.384;2023-06-04T11:50:21;1.98;;;1.27;;
17382;SDS011;8809;51.892;8.384;2023-06-04T11:52:48;2.30;;;1.20;;
17382;SDS011;8809;51.892;8.384;2023-06-04T11:55:16;1.52;;;1.40;;
17382;SDS011;8809;51.892;8.384;2023-06-04T11:57:46;1.42;;;1.10;;
17382;SDS011;8809;51.892;8.384;2023-06-04T12:00:16;1.30;;;1.20;;
17382;SDS011;8809;51.892;8.384;2023-06-04T12:02:51;1.50;;;1.30;;
17382;SDS011;8809;51.892;8.384;2023-06-04T12:05:19;2.63;;;1.52;;
17382;SDS011;8809;51.892;8.384;2023-06-04T12:07:48;1.33;;;1.23;;
17382;SDS011;8809;51.892;8.384;2023-06-04T12:10:16;1.38;;;1.20;;
17382;SDS011;8809;51.892;8.384;2023-06-04T12:12:44;1.20;;;1.00;;
17382;SDS011;8809;51.892;8.384;2023-06-04T12:15:22;1.30;;;1.10;;
17382;SDS011;8809;51.892;8.384;2023-06-04T12:17:49;2.15;;;1.55;;
17382;SDS011;8809;51.892;8.384;2023-06-04T12:20:17;2.10;;;1.30;;
17382;SDS011;8809;51.892;8.384;2023-06-04T12:22:45;1.10;;;1.00;;
17382;SDS011;8809;51.892;8.384;2023-06-04T12:25:23;1.10;;;1.00;;
17382;SDS011;8809;51.892;8.384;2023-06-04T12:27:51;1.13;;;1.02;;
17382;SDS011;8809;51.892;8.384;2023-06-04T12:30:20;1.88;;;1.30;;
17382;SDS011;8809;51.892;8.384;2023-06-04T12:33:01;1.27;;;1.15;;
17382;SDS011;8809;51.892;8.384;2023-06-04T12:35:28;1.20;;;1.08;;
17382;SDS011;8809;51.892;8.384;2023-06-04T12:37:55;0.93;;;0.82;;
17382;SDS011;8809;51.892;8.384;2023-06-04T12:40:25;1.10;;;0.90;;
17382;SDS011;8809;51.892;8.384;2023-06-04T12:42:52;1.33;;;1.20;;
17382;SDS011;8809;51.892;8.384;2023-06-04T12:45:24;1.10;;;0.80;;
17382;SDS011;8809;51.892;8.384;2023-06-04T12:47:54;1.10;;;1.00;;
17382;SDS011;8809;51.892;8.384;2023-06-04T12:50:21;1.23;;;1.10;;
17382;SDS011;8809;51.892;8.384;2023-06-04T12:52:51;1.15;;;1.05;;
17382;SDS011;8809;51.892;8.384;2023-06-04T12:55:18;1.20;;;0.90;;
17382;SDS011;8809;51.892;8.384;2023-06-04T12:57:45;1.17;;;1.08;;
17382;SDS011;8809;51.892;8.384;2023-06-04T13:00:17;1.35;;;0.85;;
17382;SDS011;8809;51.892;8.384;2023-06-04T13:02:45;2.33;;;1.20;;
17382;SDS011;8809;51.892;8.384;2023-06-04T13:05:16;1.30;;;1.00;;
17382;SDS011;8809;51.892;8.384;2023-06-04T13:07:43;1.67;;;1.13;;
17382;SDS011;8809;51.892;8.384;2023-06-04T13:10:11;1.10;;;1.00;;
17382;SDS011;8809;51.892;8.384;2023-06-04T13:12:38;1.23;;;0.90;;
17382;SDS011;8809;51.892;8.384;2023-06-04T13:15:09;1.10;;;1.00;;
17382;SDS011;8809;51.892;8.384;2023-06-04T13:17:37;1.40;;;1.30;;
17382;SDS011;8809;51.892;8.384;2023-06-04T13:20:06;1.80;;;0.90;;
17382;SDS011;8809;51.892;8.384;2023-06-04T13:22:37;1.85;;;1.33;;
17382;SDS011;8809;51.892;8.384;2023-06-04T13:25:05;1.90;;;1.00;;
17382;SDS011;8809;51.892;8.384;2023-06-04T13:27:33;1.65;;;1.10;;
17382;SDS011;8809;51.892;8.384;2023-06-04T13:30:00;1.55;;;1.23;;
17382;SDS011;8809;51.892;8.384;2023-06-04T13:32:28;1.00;;;0.85;;
17382;SDS011;8809;51.892;8.384;2023-06-04T13:34:55;1.00;;;0.90;;
17382;SDS011;8809;51.892;8.384;2023-06-04T13:37:24;1.15;;;1.05;;
17382;SDS011;8809;51.892;8.384;2023-06-04T13:39:54;1.77;;;0.82;;
17382;SDS011;8809;51.892;8.384;2023-06-04T13:42:22;2.03;;;0.80;;
17382;SDS011;8809;51.892;8.384;2023-06-04T13:44:49;1.33;;;1.00;;
17382;SDS011;8809;51.892;8.384;2023-06-04T13:47:18;1.77;;;1.10;;
17382;SDS011;8809;51.892;8.384;2023-06-04T13:49:47;1.67;;;1.00;;
17382;SDS011;8809;51.892;8.384;2023-06-04T13:52:14;3.15;;;1.02;;
17382;SDS011;8809;51.892;8.384;2023-06-04T13:54:43;1.42;;;1.15;;
17382;SDS011;8809;51.892;8.384;2023-06-04T13:57:11;1.25;;;1.00;;
17382;SDS011;8809;51.892;8.384;2023-06-04T13:59:39;1.42;;;1.10;;
17382;SDS011;8809;51.892;8.384;2023-06-04T14:02:06;1.40;;;1.10;;
17382;SDS011;8809;51.892;8.384;2023-06-04T14:04:34;1.20;;;1.10;;
17382;SDS011;8809;51.892;8.384;2023-06-04T14:07:01;1.15;;;1.05;;
17382;SDS011;8809;51.892;8.384;2023-06-04T14:09:28;1.40;;;1.20;;
17382;SDS011;8809;51.892;8.384;2023-06-04T14:11:57;1.00;;;0.90;;
17382;SDS011;8809;51.892;8.384;2023-06-04T14:14:25;1.40;;;0.82;;
17382;SDS011;8809;51.892;8.384;2023-06-04T14:16:52;1.17;;;1.00;;
17382;SDS011;8809;51.892;8.384;2023-06-04T14:19:21;1.73;;;1.00;;
17382;SDS011;8809;51.892;8.384;2023-06-04T14:21:49;1.30;;;1.00;;
17382;SDS011;8809;51.892;8.384;2023-06-04T14:24:17;1.10;;;1.00;;
17382;SDS011;8809;51.892;8.384;2023-06-04T14:26:44;1.10;;;1.00;;
17382;SDS011;8809;51.892;8.384;2023-06-04T14:29:13;1.40;;;0.90;;
17382;SDS011;8809;51.892;8.384;2023-06-04T14:31:40;0.85;;;0.82;;
17382;SDS011;8809;51.892;8.384;2023-06-04T14:34:07;0.90;;;0.90;;
17382;SDS011;8809;51.892;8.384;2023-06-04T14:36:35;1.92;;;1.05;;
17382;SDS011;8809;51.892;8.384;2023-06-04T14:39:05;1.00;;;0.90;;
17382;SDS011;8809;51.892;8.384;2023-06-04T14:41:32;1.15;;;1.05;;
17382;SDS011;8809;51.892;8.384;2023-06-04T14:44:00;1.35;;;0.93;;
17382;SDS011;8809;51.892;8.384;2023-06-04T14:46:28;1.23;;;1.00;;
17382;SDS011;8809;51.892;8.384;2023-06-04T14:48:55;1.00;;;0.90;;
17382;SDS011;8809;51.892;8.384;2023-06-04T14:51:23;2.67;;;1.20;;
17382;SDS011;8809;51.892;8.384;2023-06-04T14:53:50;1.15;;;1.05;;
17382;SDS011;8809;51.892;8.384;2023-06-04T14:56:18;2.85;;;1.00;;
17382;SDS011;8809;51.892;8.384;2023-06-04T14:58:45;1.15;;;0.90;;
17382;SDS011;8809;51.892;8.384;2023-06-04T15:01:12;1.58;;;1.00;;
17382;SDS011;8809;51.892;8.384;2023-06-04T15:03:43;35.22;;;3.55;;
17382;SDS011;8809;51.892;8.384;2023-06-04T15:06:10;6.35;;;1.70;;
17382;SDS011;8809;51.892;8.384;2023-06-04T15:08:40;3.38;;;1.40;;